createdAt,value
2022-08-10T00:00:23.216Z,102706.97
2022-08-10T00:02:59.195Z,102709.44
2022-08-10T00:05:43.492Z,102710.69
2022-08-10T00:08:26.198Z,102708.22
2022-08-10T00:10:59.137Z,102701.06
2022-08-10T00:13:32.105Z,102704.66
2022-08-10T00:16:05.489Z,102698.69
2022-08-10T00:18:39.568Z,102699.56
2022-08-10T00:21:12.363Z,102696.81
2022-08-10T00:23:45.085Z,102690.38
2022-08-10T00:26:17.912Z,102694.06
2022-08-10T00:28:51.213Z,102693.28
2022-08-10T00:31:23.911Z,102696.13
2022-08-10T00:33:58.051Z,102695.31
2022-08-10T00:36:31.886Z,102693.31
2022-08-10T00:39:07.947Z,102696.13
2022-08-10T00:41:44.688Z,102696.50
2022-08-10T00:44:17.463Z,102702.06
2022-08-10T00:46:50.172Z,102701.31
2022-08-10T00:49:24.724Z,102700.19
2022-08-10T00:51:57.710Z,102695.34
2022-08-10T00:54:30.601Z,102690.59
2022-08-10T00:57:17.999Z,102690.59
2022-08-10T00:59:59.094Z,102688.22
2022-08-10T01:02:33.577Z,102687.84
2022-08-10T01:05:10.117Z,102681.88
2022-08-10T01:08:10.252Z,102681.88
2022-08-10T01:10:48.644Z,102684.28
2022-08-10T01:13:27.328Z,102682.31
2022-08-10T01:16:05.556Z,102682.69
2022-08-10T01:18:44.485Z,102681.91
2022-08-10T01:21:59.789Z,102685.97
2022-08-10T01:25:06.807Z,102676.75
2022-08-10T01:27:52.868Z,102678.41
2022-08-10T01:30:31.177Z,102680.41
2022-08-10T01:33:08.842Z,102671.63
2022-08-10T01:35:48.284Z,102672.81
2022-08-10T01:38:25.405Z,102677.19
2022-08-10T01:41:06.114Z,102670.88
2022-08-10T01:43:42.781Z,102676.03
2022-08-10T01:46:20.249Z,102680.06
2022-08-10T01:48:56.139Z,102682.84
2022-08-10T01:51:33.721Z,102671.72
2022-08-10T01:54:12.806Z,102678.50
2022-08-10T01:56:49.586Z,102672.50
2022-08-10T01:59:26.930Z,102666.94
2022-08-10T02:02:05.171Z,102670.91
2022-08-10T02:04:41.393Z,102666.94
2022-08-10T02:07:17.737Z,102668.53
2022-08-10T02:09:53.800Z,102675.31
2022-08-10T02:12:31.049Z,102670.91
2022-08-10T02:15:07.983Z,102668.13
2022-08-10T02:17:57.545Z,102666.13
2022-08-10T02:20:36.064Z,102668.91
2022-08-10T02:23:13.881Z,102661.34
2022-08-10T02:25:48.314Z,102666.13
2022-08-10T02:28:30.404Z,102667.75
2022-08-10T02:31:11.491Z,102668.94
2022-08-10T02:33:56.633Z,102662.19
2022-08-10T02:36:35.205Z,102668.56
2022-08-10T02:39:09.153Z,102665.38
2022-08-10T02:45:13.775Z,102667.78
2022-08-10T02:45:24.427Z,102667.78
2022-08-10T02:47:50.723Z,102653.41
2022-08-10T02:50:29.873Z,102651.03
2022-08-10T02:53:06.233Z,102647.84
2022-08-10T02:55:45.949Z,102648.63
2022-08-10T02:58:27.090Z,102645.84
2022-08-10T03:01:04.764Z,102648.22
2022-08-10T03:03:43.893Z,102647.03
2022-08-10T03:06:21.799Z,102653.44
2022-08-10T03:08:56.242Z,102640.69
2022-08-10T03:12:35.733Z,102644.25
2022-08-10T03:14:26.951Z,102640.66
2022-08-10T03:17:01.890Z,102641.09
2022-08-10T03:20:33.366Z,102639.91
2022-08-10T03:22:31.527Z,102638.69
2022-08-10T03:25:05.089Z,102641.47
2022-08-10T03:27:38.194Z,102634.31
2022-08-10T03:30:29.343Z,102635.91
2022-08-10T03:33:06.177Z,102637.47
2022-08-10T03:35:39.061Z,102638.31
2022-08-10T03:38:13.165Z,102637.09
2022-08-10T03:40:49.033Z,102639.09
2022-08-10T03:43:23.444Z,102635.06
2022-08-10T03:46:00.143Z,102639.84
2022-08-10T03:48:49.228Z,102631.09
2022-08-10T03:51:24.224Z,102631.09
2022-08-10T03:54:05.065Z,102628.31
2022-08-10T03:56:41.824Z,102632.66
2022-08-10T03:59:17.707Z,102629.50
2022-08-10T04:02:41.989Z,102638.25
2022-08-10T04:04:44.885Z,102637.44
2022-08-10T04:07:17.772Z,102640.59
2022-08-10T04:09:56.002Z,102637.44
2022-08-10T04:12:29.100Z,102629.47
2022-08-10T04:15:01.860Z,102631.44
2022-08-10T04:18:04.121Z,102631.84
2022-08-10T04:20:34.878Z,102642.19
2022-08-10T04:23:12.116Z,102634.22
2022-08-10T04:25:46.562Z,102637.81
2022-08-10T04:28:20.233Z,102639.00
2022-08-10T04:30:55.696Z,102633.03
2022-08-10T04:33:31.056Z,102640.59
2022-08-10T04:36:05.865Z,102639.34
2022-08-10T04:38:40.311Z,102633.81
2022-08-10T04:41:15.258Z,102643.34
2022-08-10T04:43:48.169Z,102634.59
2022-08-10T04:46:56.061Z,102633.00
2022-08-10T04:49:54.283Z,102636.97
2022-08-10T04:52:07.621Z,102627.44
2022-08-10T04:54:40.316Z,102634.16
2022-08-10T04:57:15.730Z,102637.78
2022-08-10T04:59:48.590Z,102636.59
2022-08-10T05:02:31.026Z,102635.38
2022-08-10T05:05:04.360Z,102635.81
2022-08-10T05:07:51.483Z,102630.16
2022-08-10T05:10:27.068Z,102629.38
2022-08-10T05:13:01.111Z,102637.31
2022-08-10T05:15:33.818Z,102627.78
2022-08-10T05:18:10.039Z,102623.03
2022-08-10T05:20:47.342Z,102631.34
2022-08-10T05:23:22.916Z,102638.53
2022-08-10T05:25:55.607Z,102635.69
2022-08-10T05:28:30.786Z,102636.47
2022-08-10T05:31:08.206Z,102636.47
2022-08-10T05:33:40.997Z,102639.69
2022-08-10T05:36:14.779Z,102645.25
2022-08-10T05:38:48.412Z,102650.03
2022-08-10T05:41:21.681Z,102646.06
2022-08-10T05:43:55.730Z,102642.03
2022-08-10T05:46:28.446Z,102639.69
2022-08-10T05:49:01.971Z,102653.19
2022-08-10T05:51:36.430Z,102639.28
2022-08-10T05:54:14.931Z,102641.28
2022-08-10T05:56:53.235Z,102643.63
2022-08-10T06:00:11.251Z,102640.44
2022-08-10T06:02:35.363Z,102643.59
2022-08-10T06:05:10.694Z,102628.13
2022-08-10T06:07:48.149Z,102628.53
2022-08-10T06:10:31.122Z,102629.34
2022-08-10T06:13:34.364Z,102630.13
2022-08-10T06:16:11.959Z,102634.13
2022-08-10T06:18:45.017Z,102633.69
2022-08-10T06:21:18.830Z,102622.19
2022-08-10T06:23:53.915Z,102626.16
2022-08-10T06:26:26.619Z,102630.94
2022-08-10T06:29:15.891Z,102629.34
2022-08-10T06:31:52.170Z,102622.19
2022-08-10T06:34:28.665Z,102626.97
2022-08-10T06:37:04.124Z,102628.59
2022-08-10T06:39:37.572Z,102639.28
2022-08-10T06:42:18.055Z,102636.13
2022-08-10T06:45:01.516Z,102642.16
2022-08-10T06:47:42.489Z,102637.78
2022-08-10T06:50:44.979Z,102637.81
2022-08-10T06:53:15.014Z,102640.59
2022-08-10T06:55:57.137Z,102644.97
2022-08-10T06:58:35.111Z,102643.81
2022-08-10T07:01:13.293Z,102642.22
2022-08-10T07:03:54.823Z,102639.44
2022-08-10T07:06:29.512Z,102641.44
2022-08-10T07:09:03.635Z,102635.88
2022-08-10T07:11:37.846Z,102641.06
2022-08-10T07:14:17.198Z,102639.47
2022-08-10T07:16:52.040Z,102633.91
2022-08-10T07:19:28.175Z,102631.88
2022-08-10T07:22:02.553Z,102631.06
2022-08-10T07:24:36.630Z,102632.69
2022-08-10T07:27:10.767Z,102631.84
2022-08-10T07:29:54.510Z,102629.44
2022-08-10T07:32:28.325Z,102630.25
2022-08-10T07:35:03.883Z,102636.63
2022-08-10T07:37:37.887Z,102631.78
2022-08-10T07:40:13.942Z,102638.94
2022-08-10T07:42:49.195Z,102632.94
2022-08-10T07:45:22.275Z,102637.31
2022-08-10T07:48:03.686Z,102638.44
2022-08-10T07:50:42.297Z,102642.38
2022-08-10T07:53:24.097Z,102645.13
2022-08-10T07:56:03.587Z,102643.88
2022-08-10T07:58:51.820Z,102649.41
2022-08-10T08:01:32.898Z,102647.88
2022-08-10T08:04:11.678Z,102652.06
2022-08-10T08:06:47.942Z,102653.53
2022-08-10T08:09:22.358Z,102657.00
2022-08-10T08:11:56.500Z,102660.09
2022-08-10T08:14:30.867Z,102653.94
2022-08-10T08:17:03.834Z,102650.63
2022-08-10T08:19:45.843Z,102656.81
2022-08-10T08:24:14.654Z,102650.34
2022-08-10T08:25:21.096Z,102651.06
2022-08-10T08:27:56.298Z,102652.41
2022-08-10T08:30:30.081Z,102649.78
2022-08-10T08:33:04.058Z,102657.25
2022-08-10T08:35:37.239Z,102653.56
2022-08-10T08:38:33.505Z,102655.75
2022-08-10T08:41:37.355Z,102649.97
2022-08-10T08:44:16.394Z,102651.41
2022-08-10T08:48:04.720Z,102657.16
2022-08-10T08:50:20.973Z,102650.03
2022-08-10T08:53:21.396Z,102656.34
2022-08-10T08:56:06.992Z,102650.59
2022-08-10T08:58:52.507Z,102652.47
2022-08-10T09:01:42.379Z,102646.03
2022-08-10T09:04:28.557Z,102636.53
2022-08-10T09:07:59.212Z,102640.25
2022-08-10T09:10:25.721Z,102635.94
2022-08-10T09:13:07.851Z,102635.53
2022-08-10T09:15:47.890Z,102637.03
2022-08-10T09:18:26.922Z,102622.69
2022-08-10T09:21:05.198Z,102621.41
2022-08-10T09:24:04.919Z,102621.16
2022-08-10T09:26:46.662Z,102624.06
2022-08-10T09:29:26.844Z,102618.25
2022-08-10T09:36:15.445Z,102618.75
2022-08-10T09:36:25.986Z,102612.66
2022-08-10T09:38:12.504Z,102614.31
2022-08-10T09:41:02.256Z,102606.16
2022-08-10T09:43:44.658Z,102598.53
2022-08-10T09:46:33.361Z,102601.38
2022-08-10T09:49:17.403Z,102596.41
2022-08-10T09:52:13.913Z,102595.09
2022-08-10T09:55:01.164Z,102586.94
2022-08-10T09:57:41.348Z,102592.97
2022-08-10T10:00:20.821Z,102585.34
2022-08-10T10:03:09.474Z,102581.56
2022-08-10T10:05:50.295Z,102581.66
2022-08-10T10:08:31.232Z,102581.31
2022-08-10T10:11:10.778Z,102571.00
2022-08-10T10:14:03.353Z,102579.47
2022-08-10T10:16:56.393Z,102576.66
2022-08-10T10:19:51.458Z,102574.47
2022-08-10T10:22:41.803Z,102568.84
2022-08-10T10:25:22.980Z,102568.06
2022-08-10T10:28:10.738Z,102567.69
2022-08-10T10:30:56.780Z,102569.28
2022-08-10T10:33:36.882Z,102561.94
2022-08-10T10:36:12.077Z,102558.28
2022-08-10T10:38:46.583Z,102556.94
2022-08-10T10:41:55.973Z,102555.88
2022-08-10T10:44:41.937Z,102557.13
2022-08-10T10:47:34.098Z,102551.63
2022-08-10T10:50:13.230Z,102551.72
2022-08-10T10:52:58.685Z,102556.31
2022-08-10T10:56:13.896Z,102549.06
2022-08-10T10:58:37.903Z,102545.66
2022-08-10T11:01:16.733Z,102547.94
2022-08-10T11:04:04.855Z,102535.81
2022-08-10T11:06:50.402Z,102541.66
2022-08-10T11:10:04.772Z,102535.88
2022-08-10T11:12:30.458Z,102542.78
2022-08-10T11:15:10.006Z,102533.66
2022-08-10T11:17:49.773Z,102523.88
2022-08-10T11:20:27.713Z,102525.47
2022-08-10T11:23:14.715Z,102522.34
2022-08-10T11:25:56.887Z,102521.28
2022-08-10T11:28:38.096Z,102524.53
2022-08-10T11:31:18.838Z,102526.75
2022-08-10T11:34:47.021Z,102530.59
2022-08-10T11:36:59.998Z,102520.53
2022-08-10T11:39:48.827Z,102513.97
2022-08-10T11:42:35.909Z,102515.41
2022-08-10T11:45:13.377Z,102506.00
2022-08-10T11:47:51.594Z,102506.25
2022-08-10T11:50:27.072Z,102502.88
2022-08-10T11:53:10.682Z,102491.81
2022-08-10T11:55:49.284Z,102500.75
2022-08-10T11:58:43.114Z,102500.06
2022-08-10T12:01:20.839Z,102495.53
2022-08-10T12:03:54.663Z,102497.84
2022-08-10T12:06:54.101Z,102499.53
2022-08-10T12:10:09.094Z,102491.81
2022-08-10T12:12:17.768Z,102496.03
2022-08-10T12:14:58.305Z,102491.09
2022-08-10T12:17:35.375Z,102486.09
2022-08-10T12:20:11.187Z,102492.53
2022-08-10T12:22:49.819Z,102484.34
2022-08-10T12:25:55.807Z,102480.31
2022-08-10T12:28:33.255Z,102489.06
2022-08-10T12:31:24.225Z,102490.03
2022-08-10T12:34:15.193Z,102480.69
2022-08-10T12:36:58.619Z,102475.91
2022-08-10T12:39:38.496Z,102472.09
2022-08-10T12:42:39.391Z,102478.81
2022-08-10T12:45:18.158Z,102470.53
2022-08-10T12:48:06.416Z,102465.00
2022-08-10T12:50:43.960Z,102471.81
2022-08-10T12:53:26.330Z,102457.81
2022-08-10T12:56:01.672Z,102460.69
2022-08-10T12:58:59.245Z,102451.41
2022-08-10T13:02:06.163Z,102454.56
2022-08-10T13:04:30.646Z,102442.31
2022-08-10T13:07:05.957Z,102447.66
2022-08-10T13:09:56.318Z,102437.72
2022-08-10T13:12:38.798Z,102442.84
2022-08-10T13:15:25.440Z,102435.94
2022-08-10T13:18:18.265Z,102443.25
2022-08-10T13:20:55.876Z,102433.13
2022-08-10T13:23:31.828Z,102432.88
2022-08-10T13:26:05.834Z,102427.03
2022-08-10T13:28:47.173Z,102420.00
2022-08-10T13:32:03.625Z,102418.94
2022-08-10T13:34:41.300Z,102415.03
2022-08-10T13:37:20.251Z,102401.22
2022-08-10T13:39:59.513Z,102405.19
2022-08-10T13:42:37.693Z,102401.34
2022-08-10T13:45:14.409Z,102404.41
2022-08-10T13:47:50.694Z,102404.66
2022-08-10T13:50:34.543Z,102398.53
2022-08-10T13:53:15.866Z,102395.41
2022-08-10T13:55:54.515Z,102392.34
2022-08-10T13:58:31.954Z,102393.28
2022-08-10T14:01:11.183Z,102386.97
2022-08-10T14:03:45.612Z,102394.16
2022-08-10T14:06:23.636Z,102381.41
2022-08-10T14:09:06.934Z,102386.53
2022-08-10T14:11:43.055Z,102384.19
2022-08-10T14:14:19.102Z,102384.53
2022-08-10T14:16:52.685Z,102375.31
2022-08-10T14:19:27.693Z,102376.84
2022-08-10T14:22:02.765Z,102373.56
2022-08-10T14:24:35.735Z,102363.09
2022-08-10T14:27:11.470Z,102366.78
2022-08-10T14:29:46.367Z,102355.94
2022-08-10T14:32:22.820Z,102352.09
2022-08-10T14:36:16.501Z,102351.91
2022-08-10T14:37:58.477Z,102361.69
2022-08-10T14:40:38.483Z,102356.94
2022-08-10T14:43:16.253Z,102358.63
2022-08-10T14:46:05.706Z,102347.75
2022-08-10T14:48:41.857Z,102355.44
2022-08-10T14:51:17.763Z,102343.56
2022-08-10T14:53:55.438Z,102333.31
2022-08-10T14:56:31.322Z,102345.50
2022-08-10T14:59:07.625Z,102336.06
2022-08-10T15:02:01.342Z,102339.06
2022-08-10T15:04:38.613Z,102336.94
2022-08-10T15:07:20.675Z,102332.16
2022-08-10T15:10:00.884Z,102333.78
2022-08-10T15:12:38.638Z,102322.94
2022-08-10T15:15:18.008Z,102323.78
2022-08-10T15:18:02.800Z,102322.72
2022-08-10T15:20:37.929Z,102321.44
2022-08-10T15:23:30.073Z,102322.16
2022-08-10T15:26:11.093Z,102322.50
2022-08-10T15:29:23.859Z,102320.88
2022-08-10T15:32:00.016Z,102315.50
2022-08-10T15:34:52.829Z,102319.31
2022-08-10T15:37:39.211Z,102328.44
2022-08-10T15:40:22.577Z,102323.19
2022-08-10T15:43:05.574Z,102325.03
2022-08-10T15:46:02.322Z,102328.66
2022-08-10T15:48:40.152Z,102325.25
2022-08-10T15:51:21.021Z,102324.75
2022-08-10T15:54:01.895Z,102315.28
2022-08-10T15:56:43.171Z,102313.97
2022-08-10T15:59:27.928Z,102300.84
2022-08-10T16:02:15.661Z,102317.75
2022-08-10T16:04:53.254Z,102314.44
2022-08-10T16:07:50.266Z,102308.81
2022-08-10T16:10:29.405Z,102305.41
2022-08-10T16:13:59.608Z,102305.09
2022-08-10T16:16:05.867Z,102305.13
2022-08-10T16:18:40.480Z,102297.38
2022-08-10T16:21:18.308Z,102301.16
2022-08-10T16:24:02.153Z,102290.38
2022-08-10T16:26:55.469Z,102282.75
2022-08-10T16:29:28.977Z,102289.91
2022-08-10T16:32:05.343Z,102287.72
2022-08-10T16:34:40.150Z,102290.59
2022-08-10T16:37:16.144Z,102294.69
2022-08-10T16:39:59.823Z,102290.13
2022-08-10T16:42:35.822Z,102293.75
2022-08-10T16:45:11.538Z,102294.44
2022-08-10T16:47:48.926Z,102294.72
2022-08-10T16:50:26.269Z,102287.59
2022-08-10T16:53:02.305Z,102278.41
2022-08-10T16:55:48.414Z,102284.88
2022-08-10T16:58:27.351Z,102285.97
2022-08-10T17:01:03.739Z,102285.16
2022-08-10T17:04:06.513Z,102281.63
2022-08-10T17:06:44.160Z,102274.19
2022-08-10T17:09:19.835Z,102280.66
2022-08-10T17:11:54.590Z,102278.41
2022-08-10T17:14:29.910Z,102273.97
2022-08-10T17:17:07.072Z,102276.06
2022-08-10T17:19:44.945Z,102271.06
2022-08-10T17:22:21.104Z,102278.22
2022-08-10T17:24:58.339Z,102273.25
2022-08-10T17:28:04.417Z,102267.91
2022-08-10T17:30:34.374Z,102265.66
2022-08-10T17:33:23.383Z,102265.59
2022-08-10T17:36:03.729Z,102266.34
2022-08-10T17:38:38.643Z,102259.41
2022-08-10T17:41:13.779Z,102254.66
2022-08-10T17:44:01.601Z,102259.28
2022-08-10T17:46:38.741Z,102260.91
2022-08-10T17:49:14.430Z,102250.63
2022-08-10T17:51:54.413Z,102252.25
2022-08-10T17:54:31.166Z,102248.41
2022-08-10T17:57:10.618Z,102251.69
2022-08-10T17:59:44.303Z,102248.69
2022-08-10T18:02:20.593Z,102247.59
2022-08-10T18:04:57.386Z,102255.47
2022-08-10T18:07:35.363Z,102250.53
2022-08-10T18:10:12.194Z,102239.59
2022-08-10T18:12:48.328Z,102236.44
2022-08-10T18:15:23.419Z,102245.28
2022-08-10T18:18:00.499Z,102248.00
2022-08-10T18:20:36.151Z,102246.19
2022-08-10T18:23:11.211Z,102247.44
2022-08-10T18:25:46.674Z,102253.59
2022-08-10T18:28:21.031Z,102246.81
2022-08-10T18:30:55.656Z,102251.72
2022-08-10T18:33:33.526Z,102249.66
2022-08-10T18:36:10.117Z,102252.16
2022-08-10T18:38:47.096Z,102257.50
2022-08-10T18:41:23.080Z,102256.41
2022-08-10T18:44:07.647Z,102259.31
2022-08-10T18:46:47.137Z,102259.91
2022-08-10T18:49:29.990Z,102257.75
2022-08-10T18:52:04.400Z,102260.22
2022-08-10T18:54:45.682Z,102256.84
2022-08-10T18:57:30.032Z,102259.84
2022-08-10T19:00:13.707Z,102264.84
2022-08-10T19:03:14.663Z,102258.75
2022-08-10T19:05:58.703Z,102262.06
2022-08-10T19:08:49.496Z,102263.31
2022-08-10T19:11:38.863Z,102257.03
2022-08-10T19:14:17.626Z,102262.41
2022-08-10T19:16:58.804Z,102256.91
2022-08-10T19:19:41.033Z,102257.09
2022-08-10T19:22:22.659Z,102260.97
2022-08-10T19:25:02.312Z,102260.38
2022-08-10T19:27:57.792Z,102260.13
2022-08-10T19:30:43.482Z,102267.66
2022-08-10T19:33:29.250Z,102264.56
2022-08-10T19:36:13.106Z,102265.44
2022-08-10T19:38:53.622Z,102269.94
2022-08-10T19:41:32.785Z,102278.84
2022-08-10T19:44:27.254Z,102279.16
2022-08-10T19:47:06.584Z,102281.41
2022-08-10T19:49:47.310Z,102282.44
2022-08-10T19:52:28.019Z,102281.63
2022-08-10T19:58:16.421Z,102291.13
2022-08-10T20:00:58.587Z,102283.91
2022-08-10T20:03:41.506Z,102282.25
2022-08-10T20:06:20.420Z,102290.94
2022-08-10T20:08:57.810Z,102294.56
2022-08-10T20:11:45.971Z,102288.59
2022-08-10T20:14:23.665Z,102287.03
2022-08-10T20:17:03.324Z,102286.47
2022-08-10T20:19:52.546Z,102293.75
2022-08-10T20:22:30.821Z,102285.59
2022-08-10T20:25:14.062Z,102291.50
2022-08-10T20:28:01.280Z,102283.88
2022-08-10T20:30:36.995Z,102275.31
2022-08-10T20:33:18.263Z,102288.44
2022-08-10T20:35:56.740Z,102291.97
2022-08-10T20:38:35.013Z,102281.34
2022-08-10T20:41:17.253Z,102280.72
2022-08-10T20:44:01.276Z,102282.50
2022-08-10T20:46:43.084Z,102271.56
2022-08-10T20:49:29.683Z,102280.56
2022-08-10T20:52:04.147Z,102281.06
2022-08-10T20:54:43.060Z,102282.88
2022-08-10T20:57:55.222Z,102281.88
2022-08-10T21:00:23.340Z,102281.16
2022-08-10T21:03:15.713Z,102278.34
2022-08-10T21:06:09.787Z,102275.22
2022-08-10T21:08:50.362Z,102276.91
2022-08-10T21:11:35.569Z,102276.22
2022-08-10T21:14:29.377Z,102274.66
2022-08-10T21:17:17.006Z,102270.72
2022-08-10T21:20:09.093Z,102268.88
2022-08-10T21:22:47.868Z,102268.75
2022-08-10T21:25:29.387Z,102262.25
2022-08-10T21:28:30.259Z,102273.25
2022-08-10T21:31:22.011Z,102270.44
2022-08-10T21:34:11.424Z,102276.75
2022-08-10T21:36:52.960Z,102272.00
2022-08-10T21:39:50.645Z,102263.03
2022-08-10T21:42:52.919Z,102265.84
2022-08-10T21:45:58.964Z,102260.88
2022-08-10T21:48:59.065Z,102254.66
2022-08-10T21:52:01.635Z,102256.44
2022-08-10T21:55:03.581Z,102253.69
2022-08-10T21:58:05.083Z,102260.31
2022-08-10T22:01:00.603Z,102255.47
2022-08-10T22:03:54.062Z,102251.16
2022-08-10T22:06:52.344Z,102250.97
2022-08-10T22:09:47.648Z,102246.66
2022-08-10T22:12:51.267Z,102254.56
2022-08-10T22:15:42.507Z,102251.47
2022-08-10T22:19:01.939Z,102252.88
2022-08-10T22:22:27.015Z,102250.06
2022-08-10T22:25:30.127Z,102252.66
2022-08-10T22:28:25.319Z,102249.25
2022-08-10T22:31:32.328Z,102241.34
2022-08-10T22:34:33.595Z,102259.25
2022-08-10T22:37:42.202Z,102254.66
2022-08-10T22:40:37.733Z,102253.28
2022-08-10T22:43:38.630Z,102250.47
2022-08-10T22:46:36.721Z,102246.88
2022-08-10T22:49:09.177Z,102248.88
2022-08-10T22:51:54.548Z,102251.19
2022-08-10T22:54:51.235Z,102245.66
2022-08-10T22:57:42.532Z,102249.81
2022-08-10T23:00:19.408Z,102243.47
2022-08-10T23:02:55.865Z,102246.72
2022-08-10T23:05:33.354Z,102246.34
2022-08-10T23:08:19.568Z,102241.78
2022-08-10T23:11:07.510Z,102241.19
2022-08-10T23:13:44.498Z,102243.50
2022-08-10T23:16:39.755Z,102251.91
2022-08-10T23:19:18.668Z,102249.28
2022-08-10T23:22:03.840Z,102246.38
2022-08-10T23:24:42.810Z,102243.47
2022-08-10T23:27:37.306Z,102242.41
2022-08-10T23:30:18.104Z,102240.88
2022-08-10T23:33:00.677Z,102245.53
2022-08-10T23:36:28.094Z,102246.78
2022-08-10T23:38:41.980Z,102242.13
2022-08-10T23:41:14.805Z,102242.03
2022-08-10T23:44:03.763Z,102245.38
2022-08-10T23:46:41.022Z,102242.19
2022-08-10T23:49:15.663Z,102242.28
2022-08-10T23:51:55.148Z,102244.81
2022-08-10T23:54:30.742Z,102240.25
2022-08-10T23:57:04.418Z,102240.59
2022-08-10T23:59:38.428Z,102237.25
